sensor_id;sensor_type;location;lat;lon;timestamp;pressure;altitude;pressure_sealevel;temperature
73673;BMP280;61972;19.480;-99.240;2023-03-25T10:03:36;77542.88;;;26.24
73673;BMP280;61972;19.480;-99.240;2023-03-25T10:06:15;77545.88;;;26.65
73673;BMP280;61972;19.480;-99.240;2023-03-25T10:08:59;77554.34;;;27.02
73673;BMP280;61972;19.480;-99.240;2023-03-25T10:11:37;77545.88;;;27.38
73673;BMP280;61972;19.480;-99.240;2023-03-25T10:14:18;77548.28;;;27.72
73673;BMP280;61972;19.480;-99.240;2023-03-25T10:22:17;77553.00;;;28.59
73673;BMP280;61972;19.480;-99.240;2023-03-25T10:25:00;77551.13;;;28.84
73673;BMP280;61972;19.480;-99.240;2023-03-25T10:27:39;77547.47;;;29.06
73673;BMP280;61972;19.480;-99.240;2023-03-25T10:32:49;77547.72;;;29.43
73673;BMP280;61972;19.480;-99.240;2023-03-25T10:35:19;77545.31;;;29.57
73673;BMP280;61972;19.480;-99.240;2023-03-25T10:37:51;77549.69;;;29.71
73673;BMP280;61972;19.480;-99.240;2023-03-25T10:40:26;77552.94;;;29.84
73673;BMP280;61972;19.480;-99.240;2023-03-25T10:45:44;77546.13;;;30.07
73673;BMP280;61972;19.480;-99.240;2023-03-25T10:50:51;77548.53;;;30.24
73673;BMP280;61972;19.480;-99.240;2023-03-25T10:53:27;77543.59;;;30.32
73673;BMP280;61972;19.480;-99.240;2023-03-25T10:56:02;77543.97;;;30.40
73673;BMP280;61972;19.480;-99.240;2023-03-25T10:58:30;77542.25;;;30.48
73673;BMP280;61972;19.480;-99.240;2023-03-25T11:00:58;77547.19;;;30.52
73673;BMP280;61972;19.480;-99.240;2023-03-25T11:03:31;77548.53;;;30.59
73673;BMP280;61972;19.480;-99.240;2023-03-25T11:05:59;77545.69;;;30.66
73673;BMP280;61972;19.480;-99.240;2023-03-25T11:08:25;77543.41;;;30.73
73673;BMP280;61972;19.480;-99.240;2023-03-25T11:10:52;77549.56;;;30.82
73673;BMP280;61972;19.480;-99.240;2023-03-25T11:13:29;77547.28;;;30.89
73673;BMP280;61972;19.480;-99.240;2023-03-25T11:16:01;77547.63;;;30.97
73673;BMP280;61972;19.480;-99.240;2023-03-25T11:18:33;77558.63;;;31.07
73673;BMP280;61972;19.480;-99.240;2023-03-25T11:21:03;77558.97;;;31.15
73673;BMP280;61972;19.480;-99.240;2023-03-25T11:23:36;77555.56;;;31.22
73673;BMP280;61972;19.480;-99.240;2023-03-25T11:26:37;77554.25;;;31.28
73673;BMP280;61972;19.480;-99.240;2023-03-25T11:29:11;77558.66;;;31.32
73673;BMP280;61972;19.480;-99.240;2023-03-25T11:31:37;77560.84;;;31.34
73673;BMP280;61972;19.480;-99.240;2023-03-25T11:34:16;77559.97;;;31.38
73673;BMP280;61972;19.480;-99.240;2023-03-25T11:37:00;77565.50;;;31.43
73673;BMP280;61972;19.480;-99.240;2023-03-25T11:39:34;77572.09;;;31.49
73673;BMP280;61972;19.480;-99.240;2023-03-25T11:44:49;77572.00;;;31.59
73673;BMP280;61972;19.480;-99.240;2023-03-25T11:47:41;77579.13;;;31.66
73673;BMP280;61972;19.480;-99.240;2023-03-25T11:50:18;77576.28;;;31.73
73673;BMP280;61972;19.480;-99.240;2023-03-25T11:52:46;77585.09;;;31.81
73673;BMP280;61972;19.480;-99.240;2023-03-25T11:55:28;77574.16;;;31.86
73673;BMP280;61972;19.480;-99.240;2023-03-25T11:57:57;77581.31;;;31.93
73673;BMP280;61972;19.480;-99.240;2023-03-25T12:03:18;77578.66;;;32.05
73673;BMP280;61972;19.480;-99.240;2023-03-25T12:06:03;77573.47;;;32.07
73673;BMP280;61972;19.480;-99.240;2023-03-25T12:08:47;77583.94;;;32.05
73673;BMP280;61972;19.480;-99.240;2023-03-25T12:19:47;77574.72;;;31.74
73673;BMP280;61972;19.480;-99.240;2023-03-25T12:25:53;77591.13;;;31.50
73673;BMP280;61972;19.480;-99.240;2023-03-25T12:28:19;77584.19;;;31.36
73673;BMP280;61972;19.480;-99.240;2023-03-25T12:34:00;77589.44;;;31.11
73673;BMP280;61972;19.480;-99.240;2023-03-25T12:36:46;77580.38;;;30.98
73673;BMP280;61972;19.480;-99.240;2023-03-25T12:39:40;77586.19;;;30.86
73673;BMP280;61972;19.480;-99.240;2023-03-25T12:42:29;77592.00;;;30.74
73673;BMP280;61972;19.480;-99.240;2023-03-25T12:45:05;77593.47;;;30.61
73673;BMP280;61972;19.480;-99.240;2023-03-25T12:47:42;77602.47;;;30.50
73673;BMP280;61972;19.480;-99.240;2023-03-25T12:50:25;77610.31;;;30.38
73673;BMP280;61972;19.480;-99.240;2023-03-25T12:52:58;77613.03;;;30.28
73673;BMP280;61972;19.480;-99.240;2023-03-25T13:07:16;77614.81;;;29.78
73673;BMP280;61972;19.480;-99.240;2023-03-25T13:12:33;77617.09;;;29.61
73673;BMP280;61972;19.480;-99.240;2023-03-25T13:17:52;77630.72;;;29.49
73673;BMP280;61972;19.480;-99.240;2023-03-25T13:20:22;77632.53;;;29.43
73673;BMP280;61972;19.480;-99.240;2023-03-25T13:22:53;77627.44;;;29.36
73673;BMP280;61972;19.480;-99.240;2023-03-25T13:28:02;77632.16;;;29.26
73673;BMP280;61972;19.480;-99.240;2023-03-25T13:30:35;77631.94;;;29.20
73673;BMP280;61972;19.480;-99.240;2023-03-25T13:33:08;77632.75;;;29.16
73673;BMP280;61972;19.480;-99.240;2023-03-25T13:35:46;77637.75;;;29.11
73673;BMP280;61972;19.480;-99.240;2023-03-25T13:38:18;77637.47;;;29.06
73673;BMP280;61972;19.480;-99.240;2023-03-25T13:41:13;77638.31;;;29.02
73673;BMP280;61972;19.480;-99.240;2023-03-25T13:46:23;77648.31;;;28.92
73673;BMP280;61972;19.480;-99.240;2023-03-25T13:51:48;77656.31;;;28.84
73673;BMP280;61972;19.480;-99.240;2023-03-25T13:54:20;77657.19;;;28.80
73673;BMP280;61972;19.480;-99.240;2023-03-25T14:05:19;77658.56;;;28.67
73673;BMP280;61972;19.480;-99.240;2023-03-25T14:13:26;77663.81;;;28.57
73673;BMP280;61972;19.480;-99.240;2023-03-25T14:16:02;77663.13;;;28.54
73673;BMP280;61972;19.480;-99.240;2023-03-25T14:18:30;77664.09;;;28.53
73673;BMP280;61972;19.480;-99.240;2023-03-25T14:21:10;77663.00;;;28.52
73673;BMP280;61972;19.480;-99.240;2023-03-25T14:23:38;77675.97;;;28.49
73673;BMP280;61972;19.480;-99.240;2023-03-25T14:26:06;77668.50;;;28.47
73673;BMP280;61972;19.480;-99.240;2023-03-25T14:28:39;77670.44;;;28.44
73673;BMP280;61972;19.480;-99.240;2023-03-25T14:31:14;77682.06;;;28.45
73673;BMP280;61972;19.480;-99.240;2023-03-25T14:36:29;77671.28;;;28.40
73673;BMP280;61972;19.480;-99.240;2023-03-25T14:38:57;77674.31;;;28.38
73673;BMP280;61972;19.480;-99.240;2023-03-25T14:44:21;77682.06;;;28.35
73673;BMP280;61972;19.480;-99.240;2023-03-25T14:47:24;77675.16;;;28.34
73673;BMP280;61972;19.480;-99.240;2023-03-25T14:49:50;77678.72;;;28.32
73673;BMP280;61972;19.480;-99.240;2023-03-25T14:52:47;77682.88;;;28.31
73673;BMP280;61972;19.480;-99.240;2023-03-25T14:55:44;77687.03;;;28.30
73673;BMP280;61972;19.480;-99.240;2023-03-25T14:58:24;77691.19;;;28.29
73673;BMP280;61972;19.480;-99.240;2023-03-25T15:01:12;77690.09;;;28.28
73673;BMP280;61972;19.480;-99.240;2023-03-25T15:03:41;77692.72;;;28.28
73673;BMP280;61972;19.480;-99.240;2023-03-25T15:06:14;77687.47;;;28.28
73673;BMP280;61972;19.480;-99.240;2023-03-25T15:08:49;77696.84;;;28.27
73673;BMP280;61972;19.480;-99.240;2023-03-25T15:11:25;77697.25;;;28.25
73673;BMP280;61972;19.480;-99.240;2023-03-25T15:13:56;77697.78;;;28.25
73673;BMP280;61972;19.480;-99.240;2023-03-25T15:16:54;77695.59;;;28.23
73673;BMP280;61972;19.480;-99.240;2023-03-25T15:19:21;77693.53;;;28.24
73673;BMP280;61972;19.480;-99.240;2023-03-25T15:24:27;77695.44;;;28.21
73673;BMP280;61972;19.480;-99.240;2023-03-25T15:26:55;77690.59;;;28.19
73673;BMP280;61972;19.480;-99.240;2023-03-25T15:32:03;77690.59;;;28.19
73673;BMP280;61972;19.480;-99.240;2023-03-25T15:34:47;77693.22;;;28.19
73673;BMP280;61972;19.480;-99.240;2023-03-25T15:37:35;77694.19;;;28.17
73673;BMP280;61972;19.480;-99.240;2023-03-25T15:40:28;77698.88;;;28.17
73673;BMP280;61972;19.480;-99.240;2023-03-25T15:52:47;77703.03;;;28.16
73673;BMP280;61972;19.480;-99.240;2023-03-25T15:55:54;77693.50;;;28.14
73673;BMP280;61972;19.480;-99.240;2023-03-25T15:58:34;77697.78;;;28.16
73673;BMP280;61972;19.480;-99.240;2023-03-25T16:01:39;77700.41;;;28.16
73673;BMP280;61972;19.480;-99.240;2023-03-25T16:04:16;77701.50;;;28.17
73673;BMP280;61972;19.480;-99.240;2023-03-25T16:06:47;77700.41;;;28.16
73673;BMP280;61972;19.480;-99.240;2023-03-25T16:09:22;77698.34;;;28.16
73673;BMP280;61972;19.480;-99.240;2023-03-25T16:11:49;77701.50;;;28.17
73673;BMP280;61972;19.480;-99.240;2023-03-25T16:14:17;77694.75;;;28.18
73673;BMP280;61972;19.480;-99.240;2023-03-25T16:16:57;77694.75;;;28.18
73673;BMP280;61972;19.480;-99.240;2023-03-25T16:22:31;77695.44;;;28.21
73673;BMP280;61972;19.480;-99.240;2023-03-25T16:25:01;77693.94;;;28.22
73673;BMP280;61972;19.480;-99.240;2023-03-25T16:27:32;77692.41;;;28.23
73673;BMP280;61972;19.480;-99.240;2023-03-25T16:29:59;77689.38;;;28.25
73673;BMP280;61972;19.480;-99.240;2023-03-25T16:32:31;77686.75;;;28.25
73673;BMP280;61972;19.480;-99.240;2023-03-25T16:34:58;77687.47;;;28.28
73673;BMP280;61972;19.480;-99.240;2023-03-25T16:37:24;77684.84;;;28.28
73673;BMP280;61972;19.480;-99.240;2023-03-25T16:39:55;77681.75;;;28.30
73673;BMP280;61972;19.480;-99.240;2023-03-25T16:42:28;77672.91;;;28.32
73673;BMP280;61972;19.480;-99.240;2023-03-25T16:44:57;77674.59;;;28.33
73673;BMP280;61972;19.480;-99.240;2023-03-25T16:47:23;77672.09;;;28.36
73673;BMP280;61972;19.480;-99.240;2023-03-25T16:49:52;77667.94;;;28.37
73673;BMP280;61972;19.480;-99.240;2023-03-25T16:52:28;77668.50;;;28.37
73673;BMP280;61972;19.480;-99.240;2023-03-25T16:57:32;77667.69;;;28.41
73673;BMP280;61972;19.480;-99.240;2023-03-25T17:00:11;77665.19;;;28.44
73673;BMP280;61972;19.480;-99.240;2023-03-25T17:02:42;77661.59;;;28.45
73673;BMP280;61972;19.480;-99.240;2023-03-25T17:05:20;77662.28;;;28.49
73673;BMP280;61972;19.480;-99.240;2023-03-25T17:08:09;77660.78;;;28.50
73673;BMP280;61972;19.480;-99.240;2023-03-25T17:10:54;77667.13;;;28.51
73673;BMP280;61972;19.480;-99.240;2023-03-25T17:13:28;77658.84;;;28.53
73673;BMP280;61972;19.480;-99.240;2023-03-25T17:15:55;77663.69;;;28.55
73673;BMP280;61972;19.480;-99.240;2023-03-25T17:18:26;77651.63;;;28.56
73673;BMP280;61972;19.480;-99.240;2023-03-25T17:20:56;77656.47;;;28.58
73673;BMP280;61972;19.480;-99.240;2023-03-25T17:23:33;77653.44;;;28.60
73673;BMP280;61972;19.480;-99.240;2023-03-25T17:26:08;77647.78;;;28.62
73673;BMP280;61972;19.480;-99.240;2023-03-25T17:28:43;77644.72;;;28.64
73673;BMP280;61972;19.480;-99.240;2023-03-25T17:31:31;77642.78;;;28.67
73673;BMP280;61972;19.480;-99.240;2023-03-25T17:34:19;77643.34;;;28.68
73673;BMP280;61972;19.480;-99.240;2023-03-25T17:36:46;77638.22;;;28.70
73673;BMP280;61972;19.480;-99.240;2023-03-25T17:39:21;77637.94;;;28.75
73673;BMP280;61972;19.480;-99.240;2023-03-25T17:41:58;77635.84;;;28.75
73673;BMP280;61972;19.480;-99.240;2023-03-25T17:44:37;77628.09;;;28.78
73673;BMP280;61972;19.480;-99.240;2023-03-25T17:47:05;77631.44;;;28.81
73673;BMP280;61972;19.480;-99.240;2023-03-25T17:49:32;77631.00;;;28.83
73673;BMP280;61972;19.480;-99.240;2023-03-25T17:51:58;77620.06;;;28.85
73673;BMP280;61972;19.480;-99.240;2023-03-25T17:54:24;77623.38;;;28.88
73673;BMP280;61972;19.480;-99.240;2023-03-25T17:56:51;77620.88;;;28.91
73673;BMP280;61972;19.480;-99.240;2023-03-25T17:59:22;77615.22;;;28.93
73673;BMP280;61972;19.480;-99.240;2023-03-25T18:01:50;77614.81;;;28.95
73673;BMP280;61972;19.480;-99.240;2023-03-25T18:04:17;77609.09;;;28.97
73673;BMP280;61972;19.480;-99.240;2023-03-25T18:06:45;77601.91;;;29.00
73673;BMP280;61972;19.480;-99.240;2023-03-25T18:09:19;77595.69;;;29.01
73673;BMP280;61972;19.480;-99.240;2023-03-25T18:11:49;77591.09;;;29.05
73673;BMP280;61972;19.480;-99.240;2023-03-25T18:14:18;77583.34;;;29.07
73673;BMP280;61972;19.480;-99.240;2023-03-25T18:16:44;77584.00;;;29.10
73673;BMP280;61972;19.480;-99.240;2023-03-25T18:19:22;77576.81;;;29.13
73673;BMP280;61972;19.480;-99.240;2023-03-25T18:21:48;77574.28;;;29.16
73673;BMP280;61972;19.480;-99.240;2023-03-25T18:24:14;77572.34;;;29.19
73673;BMP280;61972;19.480;-99.240;2023-03-25T18:26:42;77561.94;;;29.21
73673;BMP280;61972;19.480;-99.240;2023-03-25T18:29:20;77569.44;;;29.24
73673;BMP280;61972;19.480;-99.240;2023-03-25T18:31:46;77564.84;;;29.27
73673;BMP280;61972;19.480;-99.240;2023-03-25T18:34:13;77557.66;;;29.30
73673;BMP280;61972;19.480;-99.240;2023-03-25T18:36:40;77551.97;;;29.32
73673;BMP280;61972;19.480;-99.240;2023-03-25T18:39:12;77547.34;;;29.35
73673;BMP280;61972;19.480;-99.240;2023-03-25T18:41:39;77549.56;;;29.37
73673;BMP280;61972;19.480;-99.240;2023-03-25T18:44:07;77546.53;;;29.39
73673;BMP280;61972;19.480;-99.240;2023-03-25T18:46:33;77537.78;;;29.43
73673;BMP280;61972;19.480;-99.240;2023-03-25T18:48:59;77537.38;;;29.45
73673;BMP280;61972;19.480;-99.240;2023-03-25T18:51:29;77532.75;;;29.48
73673;BMP280;61972;19.480;-99.240;2023-03-25T18:53:56;77525.53;;;29.51
73673;BMP280;61972;19.480;-99.240;2023-03-25T18:56:22;77521.94;;;29.53
73673;BMP280;61972;19.480;-99.240;2023-03-25T18:58:50;77516.78;;;29.55
73673;BMP280;61972;19.480;-99.240;2023-03-25T19:01:17;77519.53;;;29.58
73673;BMP280;61972;19.480;-99.240;2023-03-25T19:03:45;77511.78;;;29.61
73673;BMP280;61972;19.480;-99.240;2023-03-25T19:06:12;77508.72;;;29.63
73673;BMP280;61972;19.480;-99.240;2023-03-25T19:08:39;77508.16;;;29.62
73673;BMP280;61972;19.480;-99.240;2023-03-25T19:11:08;77492.47;;;29.65
73673;BMP280;61972;19.480;-99.240;2023-03-25T19:13:34;77492.59;;;29.67
73673;BMP280;61972;19.480;-99.240;2023-03-25T19:16:00;77476.50;;;29.72
73673;BMP280;61972;19.480;-99.240;2023-03-25T19:18:30;77478.25;;;29.76
73673;BMP280;61972;19.480;-99.240;2023-03-25T19:20:58;77474.34;;;29.82
73673;BMP280;61972;19.480;-99.240;2023-03-25T19:23:24;77469.88;;;29.88
73673;BMP280;61972;19.480;-99.240;2023-03-25T19:25:51;77471.19;;;29.94
73673;BMP280;61972;19.480;-99.240;2023-03-25T19:28:20;77462.56;;;30.01
73673;BMP280;61972;19.480;-99.240;2023-03-25T19:30:48;77458.19;;;30.09
73673;BMP280;61972;19.480;-99.240;2023-03-25T19:33:15;77456.88;;;30.15
73673;BMP280;61972;19.480;-99.240;2023-03-25T19:35:51;77453.63;;;30.24
73673;BMP280;61972;19.480;-99.240;2023-03-25T19:38:19;77447.19;;;30.33
73673;BMP280;61972;19.480;-99.240;2023-03-25T19:40:48;77447.06;;;30.43
73673;BMP280;61972;19.480;-99.240;2023-03-25T19:43:15;77437.44;;;30.51
73673;BMP280;61972;19.480;-99.240;2023-03-25T19:45:41;77439.94;;;30.61
73673;BMP280;61972;19.480;-99.240;2023-03-25T19:48:07;77437.13;;;30.68
73673;BMP280;61972;19.480;-99.240;2023-03-25T19:50:33;77430.19;;;30.79
73673;BMP280;61972;19.480;-99.240;2023-03-25T19:53:02;77429.09;;;30.90
73673;BMP280;61972;19.480;-99.240;2023-03-25T19:55:30;77420.50;;;30.99
73673;BMP280;61972;19.480;-99.240;2023-03-25T19:57:57;77423.56;;;31.09
73673;BMP280;61972;19.480;-99.240;2023-03-25T20:00:25;77413.91;;;31.18
73673;BMP280;61972;19.480;-99.240;2023-03-25T20:02:54;77414.78;;;31.26
73673;BMP280;61972;19.480;-99.240;2023-03-25T20:05:23;77403.97;;;31.33
73673;BMP280;61972;19.480;-99.240;2023-03-25T20:07:50;77403.19;;;31.40
73673;BMP280;61972;19.480;-99.240;2023-03-25T20:10:19;77395.56;;;31.47
73673;BMP280;61972;19.480;-99.240;2023-03-25T20:12:46;77393.78;;;31.56
73673;BMP280;61972;19.480;-99.240;2023-03-25T20:15:13;77387.72;;;31.62
73673;BMP280;61972;19.480;-99.240;2023-03-25T20:17:40;77388.56;;;31.70
73673;BMP280;61972;19.480;-99.240;2023-03-25T20:20:10;77384.69;;;31.79
73673;BMP280;61972;19.480;-99.240;2023-03-25T20:22:37;77376.59;;;31.89
73673;BMP280;61972;19.480;-99.240;2023-03-25T20:25:04;77382.81;;;32.00
73673;BMP280;61972;19.480;-99.240;2023-03-25T20:27:30;77374.84;;;32.12
73673;BMP280;61972;19.480;-99.240;2023-03-25T20:29:56;77372.13;;;32.24
73673;BMP280;61972;19.480;-99.240;2023-03-25T20:32:23;77370.53;;;32.38
73673;BMP280;61972;19.480;-99.240;2023-03-25T20:34:49;77360.94;;;32.51
73673;BMP280;61972;19.480;-99.240;2023-03-25T20:37:16;77357.75;;;32.65
73673;BMP280;61972;19.480;-99.240;2023-03-25T20:39:42;77346.63;;;32.80
73673;BMP280;61972;19.480;-99.240;2023-03-25T20:42:09;77339.69;;;32.93
73673;BMP280;61972;19.480;-99.240;2023-03-25T20:44:37;77346.41;;;33.04
73673;BMP280;61972;19.480;-99.240;2023-03-25T20:47:04;77343.66;;;33.17
73673;BMP280;61972;19.480;-99.240;2023-03-25T20:49:32;77338.88;;;33.32
73673;BMP280;61972;19.480;-99.240;2023-03-25T20:51:58;77337.75;;;33.46
73673;BMP280;61972;19.480;-99.240;2023-03-25T20:54:25;77334.44;;;33.58
73673;BMP280;61972;19.480;-99.240;2023-03-25T20:56:52;77327.44;;;33.71
73673;BMP280;61972;19.480;-99.240;2023-03-25T20:59:19;77317.72;;;33.82
73673;BMP280;61972;19.480;-99.240;2023-03-25T21:01:46;77323.88;;;33.93
73673;BMP280;61972;19.480;-99.240;2023-03-25T21:04:22;77314.66;;;34.04
73673;BMP280;61972;19.480;-99.240;2023-03-25T21:06:49;77313.34;;;34.13
73673;BMP280;61972;19.480;-99.240;2023-03-25T21:09:16;77308.88;;;34.23
73673;BMP280;61972;19.480;-99.240;2023-03-25T21:11:43;77299.06;;;34.32
73673;BMP280;61972;19.480;-99.240;2023-03-25T21:14:12;77291.41;;;34.42
73673;BMP280;61972;19.480;-99.240;2023-03-25T21:16:39;77290.03;;;34.51
73673;BMP280;61972;19.480;-99.240;2023-03-25T21:19:06;77287.59;;;34.58
73673;BMP280;61972;19.480;-99.240;2023-03-25T21:21:33;77286.81;;;34.68
73673;BMP280;61972;19.480;-99.240;2023-03-25T21:24:00;77289.13;;;34.75
73673;BMP280;61972;19.480;-99.240;2023-03-25T21:26:32;77286.13;;;34.82
73673;BMP280;61972;19.480;-99.240;2023-03-25T21:28:58;77278.38;;;34.90
73673;BMP280;61972;19.480;-99.240;2023-03-25T21:31:26;77283.41;;;34.99
73673;BMP280;61972;19.480;-99.240;2023-03-25T21:33:54;77278.25;;;35.04
73673;BMP280;61972;19.480;-99.240;2023-03-25T21:36:26;77283.69;;;35.10
73673;BMP280;61972;19.480;-99.240;2023-03-25T21:38:57;77277.41;;;35.14
73673;BMP280;61972;19.480;-99.240;2023-03-25T21:41:24;77273.34;;;35.20
73673;BMP280;61972;19.480;-99.240;2023-03-25T21:43:50;77267.06;;;35.24
73673;BMP280;61972;19.480;-99.240;2023-03-25T21:46:19;77271.41;;;35.28
73673;BMP280;61972;19.480;-99.240;2023-03-25T21:49:05;77263.09;;;35.35
73673;BMP280;61972;19.480;-99.240;2023-03-25T21:51:31;77256.81;;;35.39
73673;BMP280;61972;19.480;-99.240;2023-03-25T21:54:00;77262.25;;;35.44
73673;BMP280;61972;19.480;-99.240;2023-03-25T21:56:27;77251.19;;;35.49
73673;BMP280;61972;19.480;-99.240;2023-03-25T21:58:55;77248.63;;;35.52
73673;BMP280;61972;19.480;-99.240;2023-03-25T22:01:24;77246.03;;;35.54
73673;BMP280;61972;19.480;-99.240;2023-03-25T22:03:54;77242.88;;;35.56
73673;BMP280;61972;19.480;-99.240;2023-03-25T22:06:26;77243.97;;;35.57
73673;BMP280;61972;19.480;-99.240;2023-03-25T22:08:53;77249.84;;;35.58
73673;BMP280;61972;19.480;-99.240;2023-03-25T22:11:24;77239.81;;;35.61
73673;BMP280;61972;19.480;-99.240;2023-03-25T22:13:50;77239.34;;;35.63
73673;BMP280;61972;19.480;-99.240;2023-03-25T22:16:18;77242.03;;;35.65
73673;BMP280;61972;19.480;-99.240;2023-03-25T22:18:45;77227.19;;;35.67
73673;BMP280;61972;19.480;-99.240;2023-03-25T22:21:15;77234.13;;;35.68
73673;BMP280;61972;19.480;-99.240;2023-03-25T22:23:42;77233.66;;;35.70
73673;BMP280;61972;19.480;-99.240;2023-03-25T22:26:10;77231.59;;;35.73
73673;BMP280;61972;19.480;-99.240;2023-03-25T22:28:38;77224.69;;;35.74
73673;BMP280;61972;19.480;-99.240;2023-03-25T22:33:35;77228.56;;;35.80
73673;BMP280;61972;19.480;-99.240;2023-03-25T22:36:03;77223.31;;;35.83
73673;BMP280;61972;19.480;-99.240;2023-03-25T22:38:32;77226.56;;;35.86
73673;BMP280;61972;19.480;-99.240;2023-03-25T22:41:05;77229.81;;;35.89
73673;BMP280;61972;19.480;-99.240;2023-03-25T22:43:31;77233.09;;;35.92
73673;BMP280;61972;19.480;-99.240;2023-03-25T22:45:59;77236.38;;;35.95
73673;BMP280;61972;19.480;-99.240;2023-03-25T22:48:27;77235.94;;;36.00
73673;BMP280;61972;19.480;-99.240;2023-03-25T22:50:54;77236.53;;;36.03
73673;BMP280;61972;19.480;-99.240;2023-03-25T22:53:20;77240.88;;;36.07
73673;BMP280;61972;19.480;-99.240;2023-03-25T22:55:51;77238.81;;;36.10
73673;BMP280;61972;19.480;-99.240;2023-03-25T22:58:21;77234.09;;;36.13
73673;BMP280;61972;19.480;-99.240;2023-03-25T23:00:48;77241.59;;;36.15
73673;BMP280;61972;19.480;-99.240;2023-03-25T23:03:15;77231.47;;;36.16
73673;BMP280;61972;19.480;-99.240;2023-03-25T23:05:42;77226.16;;;36.16
73673;BMP280;61972;19.480;-99.240;2023-03-25T23:08:18;77225.63;;;36.15
73673;BMP280;61972;19.480;-99.240;2023-03-25T23:10:44;77222.41;;;36.15
73673;BMP280;61972;19.480;-99.240;2023-03-25T23:13:11;77220.31;;;36.15
73673;BMP280;61972;19.480;-99.240;2023-03-25T23:15:37;77217.66;;;36.15
73673;BMP280;61972;19.480;-99.240;2023-03-25T23:18:03;77225.09;;;36.15
73673;BMP280;61972;19.480;-99.240;2023-03-25T23:20:29;77225.09;;;36.15
73673;BMP280;61972;19.480;-99.240;2023-03-25T23:22:56;77225.63;;;36.15
73673;BMP280;61972;19.480;-99.240;2023-03-25T23:25:22;77221.94;;;36.17
73673;BMP280;61972;19.480;-99.240;2023-03-25T23:27:48;77219.31;;;36.19
73673;BMP280;61972;19.480;-99.240;2023-03-25T23:30:15;77224.09;;;36.19
73673;BMP280;61972;19.480;-99.240;2023-03-25T23:32:41;77220.41;;;36.20
73673;BMP280;61972;19.480;-99.240;2023-03-25T23:35:08;77217.22;;;36.20
73673;BMP280;61972;19.480;-99.240;2023-03-25T23:37:35;77220.41;;;36.20
73673;BMP280;61972;19.480;-99.240;2023-03-25T23:40:01;77225.75;;;36.20
73673;BMP280;61972;19.480;-99.240;2023-03-25T23:42:29;77228.88;;;36.18
73673;BMP280;61972;19.480;-99.240;2023-03-25T23:44:56;77229.44;;;36.19
73673;BMP280;61972;19.480;-99.240;2023-03-25T23:47:23;77236.34;;;36.18
73673;BMP280;61972;19.480;-99.240;2023-03-25T23:49:49;77237.34;;;36.16
73673;BMP280;61972;19.480;-99.240;2023-03-25T23:52:15;77239.50;;;36.18
73673;BMP280;61972;19.480;-99.240;2023-03-25T23:54:41;77240.06;;;36.19
73673;BMP280;61972;19.480;-99.240;2023-03-25T23:57:08;77251.81;;;36.20
73673;BMP280;61972;19.480;-99.240;2023-03-25T23:59:34;77254.53;;;36.22
